Time;durP1;ratioP1;P1;durP2;ratioP2;P2;SDS_P1;SDS_P2;PMS_P1;PMS_P2;Temp;Humidity;BMP_temperature;BMP_pressure;BME280_temperature;BME280_humidity;BME280_pressure;Samples;Min_cycle;Max_cycle;Signal;HPM_P1;HPM_P2
2021/08/03 00:02:22;;;;;;;48.65;9.75;;;;;;;19.32;100.00;100386.79;1702972;84;21129;-41
2021/08/03 00:04:51;;;;;;;31.77;9.03;;;;;;;19.34;100.00;100394.14;1704083;84;21003;-42
2021/08/03 00:07:19;;;;;;;82.95;13.15;;;;;;;19.35;100.00;100394.03;1703099;84;21019;-41
2021/08/03 00:09:47;;;;;;;54.25;10.88;;;;;;;19.37;100.00;100382.98;1703158;82;20963;-41
2021/08/03 00:12:15;;;;;;;39.45;7.80;;;;;;;19.42;100.00;100385.80;1710646;82;20928;-41
2021/08/03 00:14:50;;;;;;;25.85;8.18;;;;;;;19.44;100.00;100387.42;1699045;84;21038;-42
2021/08/03 00:17:19;;;;;;;17.27;6.05;;;;;;;19.47;100.00;100389.04;1708332;82;21713;-41
2021/08/03 00:19:45;;;;;;;11.90;5.30;;;;;;;19.51;100.00;100391.87;1706661;84;20917;-42
2021/08/03 00:22:13;;;;;;;14.53;5.42;;;;;;;19.56;100.00;100387.64;1703118;84;20976;-41
2021/08/03 00:24:40;;;;;;;12.90;5.35;;;;;;;19.57;100.00;100377.52;1706733;82;20971;-41
2021/08/03 00:27:07;;;;;;;8.85;5.53;;;;;;;19.55;100.00;100364.50;1707553;82;21055;-41
2021/08/03 00:29:34;;;;;;;13.60;4.60;;;;;;;19.53;100.00;100361.95;1702773;84;20986;-41
2021/08/03 00:32:01;;;;;;;6.92;4.58;;;;;;;19.52;100.00;100372.08;1661651;84;20936;-41
2021/08/03 00:34:27;;;;;;;10.32;5.12;;;;;;;19.51;100.00;100362.51;1702950;83;21030;-42
2021/08/03 00:36:54;;;;;;;6.37;4.47;;;;;;;19.50;100.00;100363.44;1707104;84;20991;-41
2021/08/03 00:39:23;;;;;;;9.03;4.65;;;;;;;19.47;100.00;100366.25;1690014;82;21108;-39
2021/08/03 00:41:55;;;;;;;10.35;5.47;;;;;;;19.43;100.00;100369.13;1703305;84;20971;-39
2021/08/03 00:44:47;;;;;;;5.60;4.65;;;;;;;19.40;100.00;100368.85;1702836;84;20967;-39
2021/08/03 00:47:17;;;;;;;11.78;5.45;;;;;;;19.37;100.00;100366.41;1699764;84;20943;-39
2021/08/03 00:49:45;;;;;;;6.53;5.03;;;;;;;19.34;100.00;100363.97;1689604;83;21025;-41
2021/08/03 00:52:14;;;;;;;8.75;5.42;;;;;;;19.32;100.00;100367.11;1712344;83;21090;-40
2021/08/03 00:54:42;;;;;;;13.08;5.47;;;;;;;19.31;100.00;100368.05;1711842;82;20995;-40
2021/08/03 00:57:12;;;;;;;10.48;5.42;;;;;;;19.30;100.00;100371.16;1710375;83;20964;-41
2021/08/03 00:59:40;;;;;;;7.33;4.45;;;;;;;19.28;100.00;100367.77;1717125;83;20948;-40
2021/08/03 01:02:08;;;;;;;8.88;5.62;;;;;;;19.26;100.00;100360.45;1718521;82;20999;-40
2021/08/03 01:04:35;;;;;;;22.77;5.67;;;;;;;19.26;100.00;100367.47;1717421;82;21122;-40
2021/08/03 01:07:26;;;;;;;9.55;5.12;;;;;;;19.24;100.00;100367.56;1685234;83;21008;-41
2021/08/03 01:10:33;;;;;;;15.23;5.47;;;;;;;19.22;100.00;100368.95;1711920;82;20916;-40
2021/08/03 01:13:24;;;;;;;9.80;5.20;;;;;;;19.21;100.00;100376.45;1710037;83;20964;-40
2021/08/03 01:15:58;;;;;;;11.97;5.25;;;;;;;19.19;100.00;100371.75;1716484;82;21021;-40
2021/08/03 01:18:36;;;;;;;6.95;5.40;;;;;;;19.20;100.00;100372.13;1710433;83;21125;-40
2021/08/03 01:21:12;;;;;;;10.53;5.58;;;;;;;19.21;100.00;100372.52;1710242;82;21052;-40
2021/08/03 01:24:13;;;;;;;10.45;4.72;;;;;;;19.22;100.00;100371.58;1722829;82;21085;-40
2021/08/03 01:27:21;;;;;;;15.43;5.87;;;;;;;19.22;100.00;100368.95;1711914;83;20994;-40
2021/08/03 01:29:49;;;;;;;8.05;4.90;;;;;;;19.24;100.00;100376.27;1708780;83;20944;-41
2021/08/03 01:32:21;;;;;;;7.72;4.90;;;;;;;19.26;100.00;100370.09;1710993;82;21088;-40
2021/08/03 01:34:48;;;;;;;7.35;5.33;;;;;;;19.26;100.00;100375.34;1716758;82;21023;-40
2021/08/03 01:37:17;;;;;;;10.23;5.15;;;;;;;19.27;100.00;100383.59;1710450;83;21099;-40
2021/08/03 01:40:07;;;;;;;16.00;5.58;;;;;;;19.27;100.00;100387.52;1717874;82;20964;-40
2021/08/03 01:42:38;;;;;;;8.78;5.42;;;;;;;19.29;100.00;100396.16;1687594;83;21071;-39
2021/08/03 01:45:07;;;;;;;6.37;5.22;;;;;;;19.29;100.00;100399.63;1711863;82;21722;-39
2021/08/03 01:47:36;;;;;;;6.83;5.20;;;;;;;19.32;100.00;100402.53;1714886;83;21533;-39
2021/08/03 01:50:05;;;;;;;16.67;6.00;;;;;;;19.33;100.00;100404.26;1687098;83;20947;-40
2021/08/03 01:52:32;;;;;;;16.45;5.15;;;;;;;19.34;100.00;100404.63;1647043;83;20990;-41
2021/08/03 01:55:00;;;;;;;13.55;5.50;;;;;;;19.35;100.00;100405.02;1714629;83;21026;-40
2021/08/03 01:57:29;;;;;;;8.50;5.58;;;;;;;19.36;100.00;100403.59;1721337;82;21170;-40
2021/08/03 01:59:58;;;;;;;11.57;6.30;;;;;;;19.37;100.00;100414.95;1687714;83;21557;-39
2021/08/03 02:02:25;;;;;;;8.10;4.97;;;;;;;19.37;100.00;100411.02;1715129;83;20994;-40
2021/08/03 02:04:54;;;;;;;14.93;5.08;;;;;;;19.38;100.00;100422.72;1689432;83;20991;-40
2021/08/03 02:07:21;;;;;;;8.25;5.53;;;;;;;19.39;100.00;100420.96;1721133;82;20982;-40
2021/08/03 02:09:49;;;;;;;11.28;5.53;;;;;;;19.41;100.00;100415.61;1717205;82;21082;-40
2021/08/03 02:12:15;;;;;;;11.53;4.90;;;;;;;19.40;100.00;100406.91;1719553;83;21021;-40
2021/08/03 02:14:45;;;;;;;10.28;5.17;;;;;;;19.41;100.00;100409.91;1717009;83;20962;-40
2021/08/03 02:17:19;;;;;;;11.65;5.12;;;;;;;19.41;100.00;100409.05;1711565;83;20908;-40
2021/08/03 02:19:48;;;;;;;6.30;5.17;;;;;;;19.41;100.00;100409.05;1688531;82;20940;-40
2021/08/03 02:22:17;;;;;;;12.03;5.78;;;;;;;19.41;100.00;100409.91;1714960;83;21138;-40
2021/08/03 02:24:46;;;;;;;9.80;5.80;;;;;;;19.42;100.00;100412.91;1715848;82;21623;-40
2021/08/03 02:27:15;;;;;;;11.10;5.62;;;;;;;19.38;100.00;100410.09;1720281;83;21014;-40
2021/08/03 02:29:44;;;;;;;13.03;4.83;;;;;;;19.38;99.89;100406.15;1690556;83;21004;-40
2021/08/03 02:32:24;;;;;;;7.10;4.90;;;;;;;19.38;99.72;100412.23;1716510;82;20964;-39
2021/08/03 02:35:05;;;;;;;8.15;5.40;;;;;;;19.37;99.42;100425.45;1716903;83;21128;-40
2021/08/03 02:37:35;;;;;;;6.87;4.95;;;;;;;19.36;99.29;100432.47;1712082;83;20986;-40
2021/08/03 02:40:05;;;;;;;8.28;4.75;;;;;;;19.38;99.25;100445.52;1690908;83;20917;-40
2021/08/03 02:42:33;;;;;;;17.42;5.10;;;;;;;19.35;98.69;100441.75;1691420;83;21133;-40
2021/08/03 02:45:02;;;;;;;10.05;5.10;;;;;;;19.33;98.20;100444.93;1689784;82;21042;-41
2021/08/03 02:47:36;;;;;;;12.90;4.72;;;;;;;19.33;98.09;100450.17;1722502;82;21545;-41
2021/08/03 02:50:07;;;;;;;10.30;5.28;;;;;;;19.33;97.66;100447.55;1695140;83;20956;-40
2021/08/03 02:52:39;;;;;;;10.85;4.83;;;;;;;19.31;97.24;100443.69;1716678;83;20963;-41
2021/08/03 02:55:32;;;;;;;9.48;4.30;;;;;;;19.30;96.89;100438.52;1698563;83;21029;-41
2021/08/03 02:58:08;;;;;;;7.95;4.20;;;;;;;19.28;96.79;100458.75;1725869;83;20993;-41
2021/08/03 03:00:38;;;;;;;13.38;4.40;;;;;;;19.24;96.92;100470.72;1716583;83;21028;-41
2021/08/03 03:03:13;;;;;;;6.30;4.12;;;;;;;19.20;96.90;100474.45;1722363;83;20907;-40
2021/08/03 03:05:39;;;;;;;5.72;4.08;;;;;;;19.15;96.71;100479.11;1721363;82;21266;-40
2021/08/03 03:08:14;;;;;;;5.97;4.17;;;;;;;19.12;96.83;100483.21;1720834;83;21022;-41
2021/08/03 03:10:50;;;;;;;9.25;4.20;;;;;;;19.07;96.76;100479.96;1720275;83;21003;-41
2021/08/03 03:13:57;;;;;;;7.80;4.03;;;;;;;19.01;96.13;100481.16;1725234;82;21036;-41
2021/08/03 03:16:27;;;;;;;8.05;3.92;;;;;;;18.98;95.97;100484.37;1705489;83;20950;-41
2021/08/03 03:18:56;;;;;;;6.83;4.15;;;;;;;18.93;95.95;100488.09;1699476;83;20998;-41
2021/08/03 03:21:25;;;;;;;5.25;4.22;;;;;;;18.91;95.92;100499.58;1723385;83;20998;-41
2021/08/03 03:23:55;;;;;;;10.25;3.85;;;;;;;18.87;96.13;100509.41;1724048;82;20982;-39
2021/08/03 03:26:27;;;;;;;6.92;4.15;;;;;;;18.81;96.57;100509.70;1726299;81;21204;-39
2021/08/03 03:28:55;;;;;;;8.83;4.30;;;;;;;18.74;96.59;100505.70;1725881;83;20997;-40
2021/08/03 03:31:28;;;;;;;6.20;4.20;;;;;;;18.70;97.21;100508.97;1723178;83;21556;-41
2021/08/03 03:33:56;;;;;;;4.30;4.00;;;;;;;18.62;97.40;100512.44;1725025;82;21575;-40
2021/08/03 03:36:25;;;;;;;5.33;3.58;;;;;;;18.55;97.97;100513.20;1723507;82;20931;-40
2021/08/03 03:38:54;;;;;;;4.50;4.10;;;;;;;18.52;98.42;100519.47;1725900;83;22350;-40
2021/08/03 03:41:25;;;;;;;6.85;4.00;;;;;;;18.46;98.58;100528.95;1725848;82;21528;-41
2021/08/03 03:43:53;;;;;;;4.55;4.15;;;;;;;18.39;98.18;100524.92;1725664;82;20974;-40
2021/08/03 03:46:22;;;;;;;7.33;3.85;;;;;;;18.36;98.36;100524.64;1723568;82;21482;-41
2021/08/03 03:48:55;;;;;;;7.12;4.03;;;;;;;18.33;98.57;100522.63;1726137;83;20993;-40
2021/08/03 03:51:27;;;;;;;3.92;3.37;;;;;;;18.31;98.83;100527.92;1719010;83;21174;-40
2021/08/03 03:53:58;;;;;;;5.53;3.65;;;;;;;18.33;99.09;100527.42;1719321;82;20904;-40
2021/08/03 03:56:33;;;;;;;4.78;3.67;;;;;;;18.36;99.15;100523.33;1718235;83;20927;-40
2021/08/03 03:59:01;;;;;;;6.30;4.20;;;;;;;18.41;99.22;100508.66;1714833;83;20987;-40
2021/08/03 04:01:29;;;;;;;6.15;3.50;;;;;;;18.47;99.01;100518.00;1711636;82;21051;-40
2021/08/03 04:03:58;;;;;;;3.58;3.37;;;;;;;18.51;99.05;100520.84;1686829;83;21184;-40
2021/08/03 04:06:26;;;;;;;4.58;4.12;;;;;;;18.56;99.11;100531.10;1718456;83;20931;-40
2021/08/03 04:08:52;;;;;;;7.67;4.00;;;;;;;18.57;99.19;100526.25;1691650;83;21025;-40
2021/08/03 04:11:21;;;;;;;5.62;3.40;;;;;;;18.60;99.10;100536.13;1719229;82;21010;-40
2021/08/03 04:13:52;;;;;;;8.60;3.80;;;;;;;18.59;98.68;100539.67;1711378;82;21477;-40
2021/08/03 04:16:19;;;;;;;6.97;3.52;;;;;;;18.60;98.46;100541.81;1718195;82;21096;-40
2021/08/03 04:18:47;;;;;;;4.00;3.45;;;;;;;18.59;98.33;100530.49;1718330;83;20994;-40
2021/08/03 04:21:14;;;;;;;3.80;3.47;;;;;;;18.64;98.36;100524.55;1712631;83;21067;-40
2021/08/03 04:23:41;;;;;;;4.85;3.22;;;;;;;18.69;98.31;100518.22;1712242;82;21042;-40
2021/08/03 04:26:07;;;;;;;4.03;3.02;;;;;;;18.74;98.00;100524.06;1711129;82;21011;-40
2021/08/03 04:28:34;;;;;;;5.03;3.37;;;;;;;18.72;97.26;100526.78;1710430;83;22028;-40
2021/08/03 04:31:01;;;;;;;5.35;4.15;;;;;;;18.69;97.17;100533.47;1717778;83;21662;-39
2021/08/03 04:33:28;;;;;;;7.28;3.83;;;;;;;18.71;97.15;100553.06;1718166;83;20958;-40
2021/08/03 04:35:54;;;;;;;12.78;4.50;;;;;;;18.74;97.21;100559.01;1710771;83;20936;-40
2021/08/03 04:38:21;;;;;;;4.00;3.67;;;;;;;18.73;97.14;100563.00;1692256;83;20943;-40
2021/08/03 04:40:49;;;;;;;8.50;3.60;;;;;;;18.76;97.17;100566.78;1693115;83;21040;-40
2021/08/03 04:43:15;;;;;;;3.85;3.50;;;;;;;18.75;96.96;100557.22;1715881;82;20980;-40
2021/08/03 04:45:42;;;;;;;4.72;3.45;;;;;;;18.78;97.17;100555.74;1715617;82;21046;-40
2021/08/03 04:48:08;;;;;;;6.12;3.62;;;;;;;18.79;96.77;100558.75;1688195;83;21506;-40
2021/08/03 04:50:35;;;;;;;5.70;3.77;;;;;;;18.84;96.84;100554.14;1716643;83;21035;-39
2021/08/03 04:53:03;;;;;;;6.33;3.72;;;;;;;18.89;96.41;100553.44;1713145;83;21059;-39
2021/08/03 04:55:31;;;;;;;3.67;3.37;;;;;;;18.98;96.17;100557.39;1715014;82;20913;-41
2021/08/03 04:57:57;;;;;;;7.45;3.72;;;;;;;19.07;96.20;100552.09;1684306;83;20951;-40
2021/08/03 05:00:24;;;;;;;5.33;3.65;;;;;;;19.19;96.04;100548.84;1717902;83;20971;-40
2021/08/03 05:02:50;;;;;;;7.53;3.83;;;;;;;19.29;95.27;100536.53;1714251;82;21011;-40
2021/08/03 05:05:17;;;;;;;10.38;3.52;;;;;;;19.41;95.13;100542.45;1706911;83;21167;-40
2021/08/03 05:08:00;;;;;;;4.17;3.83;;;;;;;19.51;94.64;100548.05;1712643;83;20979;-40
2021/08/03 05:10:28;;;;;;;6.25;3.42;;;;;;;19.53;93.63;100550.95;1714318;83;21015;-40
2021/08/03 05:12:55;;;;;;;7.08;3.58;;;;;;;19.62;93.16;100556.16;1714702;82;21006;-40
2021/08/03 05:15:24;;;;;;;7.97;3.47;;;;;;;19.67;92.82;100556.75;1718209;83;20923;-40
2021/08/03 05:17:51;;;;;;;8.88;3.95;;;;;;;19.73;92.44;100566.08;1713286;83;21458;-40
2021/08/03 05:20:17;;;;;;;5.95;3.72;;;;;;;19.71;91.23;100569.25;1711209;82;21489;-40
2021/08/03 05:22:44;;;;;;;13.00;3.47;;;;;;;19.68;91.40;100568.94;1718901;83;21513;-39
2021/08/03 05:25:11;;;;;;;12.45;4.25;;;;;;;19.78;91.59;100572.39;1714325;82;21635;-40
2021/08/03 05:27:39;;;;;;;7.87;4.72;;;;;;;19.81;91.23;100573.53;1716267;83;21019;-40
2021/08/03 05:30:07;;;;;;;10.10;3.98;;;;;;;19.88;90.98;100572.73;1716228;82;22121;-40
2021/08/03 05:32:34;;;;;;;7.53;4.00;;;;;;;20.01;90.48;100571.61;1711250;83;20932;-41
2021/08/03 05:35:01;;;;;;;8.68;4.42;;;;;;;20.22;89.67;100565.59;1711198;83;21505;-40
2021/08/03 05:37:28;;;;;;;5.97;3.50;;;;;;;20.42;88.58;100555.23;1716791;83;21349;-40
2021/08/03 05:39:55;;;;;;;7.25;3.95;;;;;;;20.63;87.82;100559.72;1712946;82;20908;-40
2021/08/03 05:42:23;;;;;;;11.57;3.67;;;;;;;20.93;87.76;100560.61;1717859;83;21142;-40
2021/08/03 05:44:50;;;;;;;3.02;2.83;;;;;;;21.23;82.27;100567.11;1690641;82;21012;-41
2021/08/03 05:47:17;;;;;;;3.12;2.80;;;;;;;21.40;80.86;100566.55;1715517;83;21002;-40
2021/08/03 05:49:44;;;;;;;4.53;2.37;;;;;;;21.58;80.73;100574.21;1694179;82;20980;-40
2021/08/03 05:52:10;;;;;;;2.67;2.50;;;;;;;21.84;80.44;100584.45;1716681;82;20998;-40
2021/08/03 05:54:37;;;;;;;4.60;2.80;;;;;;;22.00;78.63;100587.43;1718415;83;21229;-39
2021/08/03 05:57:03;;;;;;;4.75;2.40;;;;;;;22.14;78.42;100593.95;1715604;83;21026;-40
2021/08/03 05:59:30;;;;;;;7.65;2.60;;;;;;;22.28;76.59;100599.63;1717919;82;20963;-40
2021/08/03 06:01:56;;;;;;;4.75;2.37;;;;;;;22.37;76.26;100599.50;1716113;82;20967;-39
2021/08/03 06:04:23;;;;;;;2.62;2.42;;;;;;;22.45;75.80;100605.11;1718586;83;21014;-39
2021/08/03 06:06:49;;;;;;;5.00;2.50;;;;;;;22.52;74.54;100609.54;1715107;83;22181;-40
2021/08/03 06:09:16;;;;;;;4.15;2.25;;;;;;;22.49;74.64;100607.11;1717483;83;21682;-41
2021/08/03 06:11:49;;;;;;;3.65;2.37;;;;;;;22.57;74.86;100603.97;1698261;82;21509;-39
2021/08/03 06:14:43;;;;;;;6.20;2.50;;;;;;;22.53;73.67;100611.23;1718610;83;21544;-39
2021/08/03 06:17:12;;;;;;;8.15;2.60;;;;;;;22.31;73.79;100612.61;1720830;83;20974;-40
2021/08/03 06:19:45;;;;;;;6.42;2.87;;;;;;;22.10;76.20;100622.31;1720294;83;21154;-40
2021/08/03 06:22:13;;;;;;;3.58;3.27;;;;;;;22.00;77.87;100615.10;1718615;82;20976;-40
2021/08/03 06:24:40;;;;;;;4.92;3.15;;;;;;;22.05;77.43;100609.88;1691461;83;21035;-40
2021/08/03 06:27:11;;;;;;;3.12;2.83;;;;;;;22.12;76.16;100614.30;1720978;83;21473;-39
2021/08/03 06:29:38;;;;;;;5.15;2.90;;;;;;;22.03;75.13;100618.36;1731279;82;21644;-40
2021/08/03 06:32:07;;;;;;;3.67;2.92;;;;;;;22.10;77.10;100613.55;1738164;82;21971;-40
2021/08/03 06:34:34;;;;;;;8.05;3.77;;;;;;;22.39;76.16;100606.38;1738009;82;20988;-40
2021/08/03 06:37:01;;;;;;;10.75;3.08;;;;;;;22.40;73.58;100613.80;1728925;82;21497;-40
2021/08/03 06:39:27;;;;;;;5.35;3.90;;;;;;;22.33;74.29;100609.89;1702496;82;20968;-40
2021/08/03 06:42:10;;;;;;;15.93;4.37;;;;;;;22.37;74.82;100612.23;1697086;83;20928;-40
2021/08/03 06:45:00;;;;;;;8.83;3.50;;;;;;;22.49;75.31;100616.34;1658151;82;21200;-39
2021/08/03 06:47:29;;;;;;;7.83;3.62;;;;;;;22.55;73.04;100614.61;1692195;84;21034;-39
2021/08/03 06:49:55;;;;;;;5.15;3.12;;;;;;;22.52;73.94;100612.17;1631812;86;20995;-39
2021/08/03 06:52:21;;;;;;;12.80;3.33;;;;;;;22.50;72.95;100614.94;1658295;86;21488;-39
2021/08/03 06:54:55;;;;;;;8.43;3.25;;;;;;;22.41;73.60;100620.77;1696025;82;21624;-40
2021/08/03 06:57:21;;;;;;;3.50;3.20;;;;;;;22.35;73.67;100622.49;1727134;82;21186;-40
2021/08/03 06:59:53;;;;;;;8.65;3.40;;;;;;;22.33;74.86;100629.66;1734921;82;21007;-39
2021/08/03 07:02:33;;;;;;;3.60;2.87;;;;;;;22.39;74.96;100631.89;1738420;82;20882;-40
2021/08/03 07:05:04;;;;;;;4.65;3.12;;;;;;;22.50;74.92;100635.17;1738429;82;21007;-38
2021/08/03 07:07:30;;;;;;;11.93;3.25;;;;;;;22.67;74.57;100640.64;1731565;82;20890;-39
2021/08/03 07:09:58;;;;;;;11.10;3.77;;;;;;;22.92;73.27;100642.48;1720994;83;21941;-39
2021/08/03 07:12:24;;;;;;;6.85;3.60;;;;;;;23.17;73.05;100643.45;1717388;83;20999;-39
2021/08/03 07:14:51;;;;;;;8.90;3.70;;;;;;;23.39;70.68;100648.60;1718316;83;21004;-40
2021/08/03 07:17:17;;;;;;;4.75;3.20;;;;;;;23.54;70.03;100644.86;1710743;82;21051;-40
2021/08/03 07:19:44;;;;;;;5.85;3.25;;;;;;;23.64;68.42;100641.10;1723015;82;22157;-41
2021/08/03 07:22:14;;;;;;;4.65;3.40;;;;;;;23.71;67.49;100642.84;1721028;83;21294;-39
2021/08/03 07:24:46;;;;;;;8.25;3.37;;;;;;;23.79;66.95;100639.16;1703263;83;20951;-40
2021/08/03 07:27:12;;;;;;;8.48;3.05;;;;;;;23.81;66.29;100653.11;1736933;82;21027;-40
2021/08/03 07:29:39;;;;;;;9.50;3.55;;;;;;;23.53;67.22;100656.39;1711535;82;20964;-41
2021/08/03 07:32:08;;;;;;;6.22;3.47;;;;;;;23.46;69.13;100655.59;1719921;82;20993;-40
2021/08/03 07:34:40;;;;;;;10.63;3.40;;;;;;;23.43;68.00;100654.49;1709236;82;21213;-40
2021/08/03 07:37:07;;;;;;;7.85;4.62;;;;;;;23.49;69.28;100647.45;1737411;82;21542;-40
2021/08/03 07:39:35;;;;;;;3.52;2.87;;;;;;;23.91;68.23;100640.08;1715678;82;21560;-40
2021/08/03 07:42:03;;;;;;;9.65;3.02;;;;;;;24.20;66.19;100641.11;1701116;82;21039;-40
2021/08/03 07:44:30;;;;;;;3.05;2.58;;;;;;;24.44;66.70;100646.87;1671123;85;21046;-40
2021/08/03 07:46:58;;;;;;;3.10;2.30;;;;;;;24.74;65.34;100656.11;1673499;85;21166;-40
2021/08/03 07:49:24;;;;;;;4.42;2.60;;;;;;;24.93;63.09;100666.20;1700394;83;21051;-39
2021/08/03 07:51:52;;;;;;;2.98;2.67;;;;;;;24.98;62.58;100663.67;1703013;82;21052;-39
2021/08/03 07:54:19;;;;;;;5.37;2.95;;;;;;;25.06;62.53;100659.95;1694322;83;20988;-40
2021/08/03 07:56:45;;;;;;;2.58;2.22;;;;;;;25.12;61.44;100675.36;1690451;83;20991;-39
2021/08/03 07:59:12;;;;;;;9.70;2.45;;;;;;;24.98;62.13;100664.50;1672876;84;21170;-40
2021/08/03 08:01:39;;;;;;;5.90;2.35;;;;;;;25.09;62.00;100663.22;1706972;82;20975;-40
2021/08/03 08:06:48;;;;;;;4.50;2.30;;;;;;;25.53;61.79;100666.04;1797190;78;22792;-39
2021/08/03 08:09:14;;;;;;;6.53;2.60;;;;;;;25.60;59.47;100673.03;1743200;81;20908;-39
2021/08/03 08:11:40;;;;;;;2.67;2.10;;;;;;;25.43;59.30;100682.28;1758430;80;21499;-39
2021/08/03 08:14:07;;;;;;;7.22;1.92;;;;;;;25.18;60.99;100676.70;1732833;81;20932;-39
2021/08/03 08:16:35;;;;;;;5.30;1.62;;;;;;;25.07;62.84;100677.52;1757000;80;21002;-39
2021/08/03 08:19:03;;;;;;;2.40;1.90;;;;;;;24.95;60.76;100674.00;1766321;80;20963;-40
2021/08/03 08:21:33;;;;;;;7.72;2.52;;;;;;;24.74;61.81;100680.42;1758749;80;20983;-39
2021/08/03 08:24:02;;;;;;;1.98;1.72;;;;;;;24.66;62.91;100679.20;1734063;82;22900;-40
2021/08/03 08:26:28;;;;;;;3.95;2.02;;;;;;;24.67;62.00;100670.30;1746600;82;20937;-40
2021/08/03 08:28:55;;;;;;;2.95;1.75;;;;;;;24.66;63.39;100666.44;1748323;82;20965;-40
2021/08/03 08:31:23;;;;;;;4.33;1.70;;;;;;;24.74;62.76;100668.51;1748597;82;21022;-40
2021/08/03 08:33:49;;;;;;;4.00;1.95;;;;;;;24.63;59.93;100665.34;1739890;82;20920;-40
2021/08/03 08:36:17;;;;;;;2.50;1.60;;;;;;;24.36;62.32;100658.50;1727724;82;21282;-38
2021/08/03 08:38:44;;;;;;;2.33;2.15;;;;;;;24.36;62.88;100658.01;1688079;84;21079;-39
2021/08/03 08:41:16;;;;;;;2.15;1.95;;;;;;;24.45;61.90;100660.95;1674999;84;21016;-38
2021/08/03 08:43:41;;;;;;;2.60;2.08;;;;;;;24.45;63.68;100666.24;1680865;84;21026;-39
2021/08/03 08:46:09;;;;;;;3.17;1.90;;;;;;;24.67;61.22;100662.37;1663959;85;21004;-39
2021/08/03 08:48:37;;;;;;;2.62;1.60;;;;;;;24.71;62.03;100663.45;1690036;84;21952;-39
2021/08/03 08:51:06;;;;;;;4.75;1.90;;;;;;;24.88;62.05;100663.53;1676821;84;20980;-39
2021/08/03 08:53:34;;;;;;;4.17;1.55;;;;;;;25.03;61.61;100661.52;1678547;84;21613;-39
2021/08/03 08:56:05;;;;;;;4.40;1.67;;;;;;;25.01;60.01;100655.49;1671141;84;21014;-39
2021/08/03 08:58:34;;;;;;;6.60;1.50;;;;;;;25.04;59.33;100659.23;1665195;84;20999;-40
2021/08/03 09:01:00;;;;;;;4.62;1.80;;;;;;;24.93;59.19;100659.58;1686248;84;22188;-39
2021/08/03 09:03:27;;;;;;;2.33;1.80;;;;;;;24.92;59.72;100663.19;1671789;84;21636;-40
2021/08/03 09:06:05;;;;;;;6.17;1.70;;;;;;;25.31;60.28;100663.34;1636368;85;21103;-40
2021/08/03 09:08:45;;;;;;;2.22;2.02;;;;;;;25.36;58.10;100664.69;1675712;85;21000;-40
2021/08/03 09:11:15;;;;;;;1.95;1.65;;;;;;;25.29;59.16;100667.92;1699884;83;21012;-40
2021/08/03 09:14:00;;;;;;;1.62;1.52;;;;;;;25.29;59.38;100662.62;1659295;85;20965;-40
2021/08/03 09:16:45;;;;;;;6.28;1.40;;;;;;;25.39;58.00;100659.64;1672629;84;21008;-39
2021/08/03 09:19:37;;;;;;;4.28;1.30;;;;;;;25.54;59.29;100655.80;1719393;82;20960;-39
2021/08/03 09:22:23;;;;;;;9.00;1.72;;;;;;;25.82;57.40;100652.27;1739702;82;20964;-39
2021/08/03 09:25:10;;;;;;;1.27;1.20;;;;;;;25.92;56.57;100641.78;1736928;82;21379;-39
2021/08/03 09:27:39;;;;;;;5.20;1.72;;;;;;;25.74;55.19;100633.50;1729976;80;21270;-39
2021/08/03 09:30:07;;;;;;;1.67;1.22;;;;;;;25.59;55.03;100628.95;1730026;82;21501;-40
2021/08/03 09:32:36;;;;;;;3.30;1.30;;;;;;;25.56;56.02;100624.36;1741328;82;21186;-39
2021/08/03 09:35:13;;;;;;;2.65;1.35;;;;;;;25.63;56.70;100629.06;1732794;82;20909;-39
2021/08/03 09:37:42;;;;;;;3.87;1.42;;;;;;;25.73;54.60;100627.84;1717005;82;20939;-39
2021/08/03 09:40:25;;;;;;;1.85;1.57;;;;;;;25.80;55.35;100629.03;1733064;82;21218;-39
2021/08/03 09:43:09;;;;;;;1.80;1.47;;;;;;;26.09;53.83;100632.45;1693964;82;21557;-41
2021/08/03 09:45:48;;;;;;;1.52;1.42;;;;;;;25.98;55.01;100625.86;1712821;82;21023;-38
2021/08/03 09:48:17;;;;;;;3.27;1.25;;;;;;;25.98;53.19;100615.26;1719634;82;20909;-39
2021/08/03 09:50:55;;;;;;;3.80;1.00;;;;;;;25.99;53.51;100617.41;1739272;80;20971;-39
2021/08/03 09:53:42;;;;;;;2.90;1.20;;;;;;;26.18;53.24;100618.95;1719917;82;21227;-39
2021/08/03 09:56:11;;;;;;;1.12;0.80;;;;;;;26.60;52.04;100614.17;1702546;82;20960;-40
2021/08/03 09:58:56;;;;;;;1.35;0.93;;;;;;;26.76;50.04;100616.87;1713299;82;20964;-39
2021/08/03 10:01:31;;;;;;;2.10;0.72;;;;;;;26.60;49.26;100606.21;1729175;82;22279;-40
2021/08/03 10:04:01;;;;;;;3.37;0.80;;;;;;;26.72;50.74;100610.97;1709871;82;20999;-40
2021/08/03 10:06:28;;;;;;;1.82;0.70;;;;;;;26.95;49.04;100617.02;1701971;83;21926;-40
2021/08/03 10:08:55;;;;;;;3.33;0.85;;;;;;;27.23;47.92;100611.13;1716700;82;21585;-39
2021/08/03 10:11:22;;;;;;;1.12;0.80;;;;;;;27.51;45.92;100613.57;1717633;82;21262;-39
2021/08/03 10:13:49;;;;;;;1.45;0.90;;;;;;;27.78;44.45;100614.75;1738838;82;20972;-39
2021/08/03 10:16:16;;;;;;;0.60;0.60;;;;;;;27.93;44.04;100606.39;1741285;82;20952;-40
2021/08/03 10:18:47;;;;;;;0.80;0.80;;;;;;;27.87;43.48;100603.79;1716721;81;20932;-40
2021/08/03 10:21:40;;;;;;;3.95;1.00;;;;;;;27.93;45.24;100605.89;1734065;82;20952;-40
2021/08/03 10:24:29;;;;;;;1.85;1.10;;;;;;;28.18;44.67;100601.54;1715419;82;20968;-40
2021/08/03 10:27:14;;;;;;;1.20;1.10;;;;;;;28.26;43.48;100604.33;1714190;83;21549;-40
2021/08/03 10:29:59;;;;;;;5.00;1.20;;;;;;;28.32;44.26;100594.44;1718417;82;21592;-40
2021/08/03 10:32:52;;;;;;;1.22;1.22;;;;;;;28.38;44.20;100604.52;1724854;82;21578;-39
2021/08/03 10:35:18;;;;;;;7.10;1.27;;;;;;;28.49;44.47;100594.72;1714894;82;21027;-40
2021/08/03 10:38:03;;;;;;;1.75;1.15;;;;;;;28.48;45.21;100602.36;1717411;82;21015;-40
2021/08/03 10:40:49;;;;;;;3.67;1.37;;;;;;;28.47;44.51;100593.52;1739515;82;20928;-40
2021/08/03 10:43:23;;;;;;;0.80;0.80;;;;;;;28.63;45.13;100584.94;1685772;82;20936;-40
2021/08/03 10:46:15;;;;;;;2.08;1.17;;;;;;;28.59;42.67;100595.53;1712473;82;21239;-40
2021/08/03 10:48:43;;;;;;;1.42;1.12;;;;;;;28.24;45.09;100595.14;1688554;83;21297;-40
2021/08/03 10:51:23;;;;;;;9.55;1.12;;;;;;;28.43;46.51;100588.64;1715084;83;20936;-40
2021/08/03 10:54:12;;;;;;;9.45;1.20;;;;;;;28.49;44.37;100582.73;1734661;82;20987;-40
2021/08/03 10:56:58;;;;;;;2.92;1.10;;;;;;;28.46;44.89;100583.03;1703292;82;21059;-40
2021/08/03 10:59:37;;;;;;;2.75;1.00;;;;;;;28.70;44.96;100585.72;1725482;82;20960;-42
2021/08/03 11:02:05;;;;;;;1.45;1.02;;;;;;;28.74;42.85;100585.77;1724667;82;20960;-40
2021/08/03 11:04:55;;;;;;;1.85;1.10;;;;;;;28.65;42.19;100589.63;1717001;81;20960;-40
2021/08/03 11:07:31;;;;;;;3.30;1.15;;;;;;;28.24;44.92;100583.17;1704195;82;21230;-40
2021/08/03 11:10:03;;;;;;;1.37;1.25;;;;;;;28.23;45.12;100593.97;1715007;83;22132;-40
2021/08/03 11:12:36;;;;;;;2.47;1.12;;;;;;;28.14;46.41;100591.62;1701650;82;21023;-41
2021/08/03 11:15:25;;;;;;;4.95;1.40;;;;;;;28.44;45.74;100595.64;1744579;81;20901;-38
2021/08/03 11:17:58;;;;;;;1.02;0.98;;;;;;;28.62;45.07;100589.09;1708728;83;21065;-39
2021/08/03 11:20:39;;;;;;;2.35;1.42;;;;;;;28.90;45.54;100590.52;1707789;82;20956;-39
2021/08/03 11:23:15;;;;;;;1.62;1.27;;;;;;;29.02;43.36;100591.17;1715372;82;20940;-39
2021/08/03 11:25:45;;;;;;;1.27;1.17;;;;;;;29.17;43.01;100591.53;1715974;82;21162;-41
2021/08/03 11:28:20;;;;;;;3.15;1.02;;;;;;;29.27;42.49;100594.16;1715076;82;21529;-40
2021/08/03 11:30:51;;;;;;;1.95;1.20;;;;;;;29.19;41.68;100586.89;1714823;82;20976;-41
2021/08/03 11:33:19;;;;;;;1.75;0.90;;;;;;;29.00;42.30;100583.83;1744331;82;20999;-41
2021/08/03 11:35:46;;;;;;;1.12;1.05;;;;;;;29.03;41.49;100579.03;1744616;82;21003;-38
2021/08/03 11:38:19;;;;;;;6.90;1.00;;;;;;;29.23;40.23;100580.28;1744569;82;21132;-40
2021/08/03 11:40:46;;;;;;;7.03;1.05;;;;;;;29.13;42.64;100580.83;1727289;82;21007;-40
2021/08/03 11:43:14;;;;;;;1.22;1.10;;;;;;;29.10;40.74;100576.63;1738842;82;21024;-40
2021/08/03 11:45:40;;;;;;;3.60;0.90;;;;;;;28.92;40.60;100568.06;1731847;82;20980;-40